Time,TemperatureF,DewpointF,PressureIn,WindDirection,WindDirectionDegrees,WindSpeedMPH,WindSpeedGustMPH,Humidity,HourlyPrecipIn,Conditions,Clouds,dailyrainin,SoftwareType,DateUTC
2013-03-01 00:06:00,37.3,12.0,30.35,NW,321,4.0,15.0,36,0.00,,,0.00,weatherlink.com 1.10,2013-03-01 07:06:00,
2013-03-01 00:21:00,37.8,12.0,30.36,NW,313,11.0,24.0,35,0.00,,,0.00,weatherlink.com 1.10,2013-03-01 07:21:00,
2013-03-01 00:36:00,37.7,12.0,30.36,NW,312,5.0,22.0,35,0.00,,,0.00,weatherlink.com 1.10,2013-03-01 07:36:00,
2013-03-01 00:51:00,37.1,13.0,30.36,WNW,300,2.0,15.0,37,0.00,,,0.00,weatherlink.com 1.10,2013-03-01 07:51:00,
2013-03-01 01:07:00,36.9,13.0,30.36,North,360,3.0,17.0,38,0.00,,,0.00,weatherlink.com 1.10,2013-03-01 08:07:00,
2013-03-01 01:22:00,35.8,14.0,30.37,NE,37,0.0,7.0,41,0.00,,,0.00,weatherlink.com 1.10,2013-03-01 08:22:00,
2013-03-01 01:37:00,36.0,14.0,30.37,NW,324,6.0,13.0,40,0.00,,,0.00,weatherlink.com 1.10,2013-03-01 08:37:00,
2013-03-01 01:52:00,36.3,14.0,30.37,WNW,288,5.0,11.0,40,0.00,,,0.00,weatherlink.com 1.10,2013-03-01 08:52:00,
2013-03-01 02:22:00,35.6,14.0,30.36,West,261,2.0,6.0,41,0.00,,,0.00,weatherlink.com 1.10,2013-03-01 09:22:00,
2013-03-01 02:37:00,35.4,14.0,30.36,WNW,293,2.0,5.0,41,0.00,,,0.00,weatherlink.com 1.10,2013-03-01 09:37:00,
2013-03-01 02:52:00,34.9,13.0,30.36,NNE,22,0.0,3.0,41,0.00,,,0.00,weatherlink.com 1.10,2013-03-01 09:52:00,
2013-03-01 03:07:00,34.0,14.0,30.36,NE,35,0.0,6.0,44,0.00,,,0.00,weatherlink.com 1.10,2013-03-01 10:07:00,
2013-03-01 03:22:00,31.9,15.0,30.36,East,79,0.0,5.0,50,0.00,,,0.00,weatherlink.com 1.10,2013-03-01 10:22:00,
2013-03-01 03:52:00,29.8,15.0,30.38,East,82,0.0,2.0,55,0.00,,,0.00,weatherlink.com 1.10,2013-03-01 10:52:00,
2013-03-01 04:07:00,29.3,15.0,30.38,East,85,0.0,5.0,56,0.00,,,0.00,weatherlink.com 1.10,2013-03-01 11:07:00,
2013-03-01 04:22:00,28.8,15.0,30.38,East,85,0.0,0.0,57,0.00,,,0.00,weatherlink.com 1.10,2013-03-01 11:22:00,
2013-03-01 04:37:00,28.4,16.0,30.39,East,85,1.0,1.0,60,0.00,,,0.00,weatherlink.com 1.10,2013-03-01 11:37:00,
2013-03-01 04:52:00,27.9,16.0,30.39,East,85,0.0,1.0,62,0.00,,,0.00,weatherlink.com 1.10,2013-03-01 11:52:00,
2013-03-01 05:07:00,28.0,16.0,30.39,ESE,112,0.0,2.0,62,0.00,,,0.00,weatherlink.com 1.10,2013-03-01 12:07:00,
2013-03-01 05:22:00,27.8,16.0,30.38,ESE,118,0.0,2.0,62,0.00,,,0.00,weatherlink.com 1.10,2013-03-01 12:22:00,
2013-03-01 05:37:00,27.5,16.0,30.38,South,177,1.0,2.0,62,0.00,,,0.00,weatherlink.com 1.10,2013-03-01 12:37:00,
2013-03-01 05:52:00,27.3,16.0,30.38,SSW,205,0.0,1.0,63,0.00,,,0.00,weatherlink.com 1.10,2013-03-01 12:52:00,
2013-03-01 06:07:00,26.9,16.0,30.38,SSW,205,0.0,1.0,63,0.00,,,0.00,weatherlink.com 1.10,2013-03-01 13:07:00,
2013-03-01 06:22:00,26.0,16.0,30.37,SSW,205,0.0,1.0,65,0.00,,,0.00,weatherlink.com 1.10,2013-03-01 13:22:00,
2013-03-01 06:37:00,25.7,15.0,30.37,SSW,203,0.0,2.0,65,0.00,,,0.00,weatherlink.com 1.10,2013-03-01 13:37:00,
2013-03-01 06:52:00,25.9,16.0,30.38,WSW,240,2.0,3.0,66,0.00,,,0.00,weatherlink.com 1.10,2013-03-01 13:52:00,
2013-03-01 07:07:00,27.0,16.0,30.38,SW,216,0.0,3.0,63,0.00,,,0.00,weatherlink.com 1.10,2013-03-01 14:07:00,
2013-03-01 07:22:00,28.1,16.0,30.38,SSW,202,1.0,7.0,60,0.00,,,0.00,weatherlink.com 1.10,2013-03-01 14:22:00,
2013-03-01 07:37:00,28.8,16.0,30.38,SW,216,2.0,6.0,58,0.00,,,0.00,weatherlink.com 1.10,2013-03-01 14:37:00,
2013-03-01 07:52:00,29.2,16.0,30.39,SSW,203,2.0,6.0,57,0.00,,,0.00,weatherlink.com 1.10,2013-03-01 14:52:00,
2013-03-01 08:07:00,29.6,16.0,30.39,SSW,193,2.0,5.0,56,0.00,,,0.00,weatherlink.com 1.10,2013-03-01 15:07:00,
2013-03-01 08:22:00,30.1,16.0,30.39,SSW,204,1.0,7.0,55,0.00,,,0.00,weatherlink.com 1.10,2013-03-01 15:22:00,
2013-03-01 08:37:00,31.4,16.0,30.39,SSW,195,3.0,7.0,53,0.00,,,0.00,weatherlink.com 1.10,2013-03-01 15:37:00,
2013-03-01 08:52:00,32.8,16.0,30.39,SSW,205,5.0,6.0,50,0.00,,,0.00,weatherlink.com 1.10,2013-03-01 15:52:00,
2013-03-01 09:08:00,33.7,16.0,30.38,SSW,199,2.0,5.0,49,0.00,,,0.00,weatherlink.com 1.10,2013-03-01 16:08:00,
2013-03-01 09:23:00,34.4,16.0,30.38,SSW,193,4.0,7.0,48,0.00,,,0.00,weatherlink.com 1.10,2013-03-01 16:23:00,
2013-03-01 09:38:00,35.1,17.0,30.38,SSW,193,1.0,7.0,47,0.00,,,0.00,weatherlink.com 1.10,2013-03-01 16:38:00,
2013-03-01 09:53:00,36.1,16.0,30.37,SSW,194,2.0,6.0,45,0.00,,,0.00,weatherlink.com 1.10,2013-03-01 16:53:00,
2013-03-01 10:08:00,37.3,17.0,30.37,SW,222,2.0,7.0,44,0.00,,,0.00,weatherlink.com 1.10,2013-03-01 17:08:00,
2013-03-01 10:23:00,38.6,18.0,30.37,SSW,193,2.0,4.0,43,0.00,,,0.00,weatherlink.com 1.10,2013-03-01 17:23:00,
2013-03-01 10:38:00,39.5,17.0,30.36,ESE,121,3.0,6.0,41,0.00,,,0.00,weatherlink.com 1.10,2013-03-01 17:38:00,
2013-03-01 10:53:00,40.4,18.0,30.36,SW,224,3.0,6.0,40,0.00,,,0.00,weatherlink.com 1.10,2013-03-01 17:53:00,
2013-03-01 11:08:00,41.4,16.0,30.36,SSW,198,4.0,6.0,36,0.00,,,0.00,weatherlink.com 1.10,2013-03-01 18:08:00,
2013-03-01 11:23:00,41.6,16.0,30.36,SE,129,1.0,6.0,36,0.00,,,0.00,weatherlink.com 1.10,2013-03-01 18:23:00,
2013-03-01 11:38:00,42.2,16.0,30.37,ENE,71,1.0,6.0,35,0.00,,,0.00,weatherlink.com 1.10,2013-03-01 18:38:00,
2013-03-01 11:53:00,42.7,16.0,30.36,SSE,151,0.0,7.0,34,0.00,,,0.00,weatherlink.com 1.10,2013-03-01 18:53:00,
2013-03-01 12:08:00,43.5,17.0,30.36,ENE,65,2.0,4.0,35,0.00,,,0.00,weatherlink.com 1.10,2013-03-01 19:08:00,
2013-03-01 12:23:00,43.7,17.0,30.34,East,100,0.0,3.0,34,0.00,,,0.00,weatherlink.com 1.10,2013-03-01 19:23:00,
2013-03-01 12:38:00,43.8,16.0,30.34,ENE,75,3.0,7.0,33,0.00,,,0.00,weatherlink.com 1.10,2013-03-01 19:38:00,
2013-03-01 12:53:00,44.1,17.0,30.33,ESE,108,2.0,6.0,33,0.00,,,0.00,weatherlink.com 1.10,2013-03-01 19:53:00,
2013-03-01 13:08:00,44.6,16.0,30.32,East,84,1.0,5.0,32,0.00,,,0.00,weatherlink.com 1.10,2013-03-01 20:08:00,
2013-03-01 13:23:00,46.3,19.0,30.30,East,86,2.0,4.0,34,0.00,,,0.00,weatherlink.com 1.10,2013-03-01 20:23:00,
2013-03-01 13:38:00,46.4,17.0,30.30,East,93,3.0,4.0,31,0.00,,,0.00,weatherlink.com 1.10,2013-03-01 20:38:00,
2013-03-01 13:53:00,46.6,18.0,30.30,ESE,107,3.0,4.0,32,0.00,,,0.00,weatherlink.com 1.10,2013-03-01 20:53:00,
2013-03-01 14:08:00,46.7,18.0,30.29,ESE,119,4.0,4.0,32,0.00,,,0.00,weatherlink.com 1.10,2013-03-01 21:08:00,
2013-03-01 14:23:00,47.2,19.0,30.29,East,101,0.0,5.0,32,0.00,,,0.00,weatherlink.com 1.10,2013-03-01 21:23:00,
2013-03-01 14:38:00,47.8,18.0,30.29,ENE,74,1.0,4.0,31,0.00,,,0.00,weatherlink.com 1.10,2013-03-01 21:38:00,
2013-03-01 14:53:00,47.9,17.0,30.28,South,188,1.0,5.0,29,0.00,,,0.00,weatherlink.com 1.10,2013-03-01 21:53:00,
2013-03-01 15:08:00,49.2,20.0,30.28,ENE,60,0.0,4.0,31,0.00,,,0.00,weatherlink.com 1.10,2013-03-01 22:08:00,
2013-03-01 15:23:00,48.8,19.0,30.28,East,94,1.0,5.0,31,0.00,,,0.00,weatherlink.com 1.10,2013-03-01 22:23:00,
2013-03-01 15:38:00,48.7,20.0,30.29,NE,37,2.0,8.0,32,0.00,,,0.00,weatherlink.com 1.10,2013-03-01 22:38:00,
2013-03-01 15:53:00,48.2,19.0,30.30,NNE,32,2.0,8.0,32,0.00,,,0.00,weatherlink.com 1.10,2013-03-01 22:53:00,
2013-03-01 16:08:00,47.9,20.0,30.30,NNE,16,2.0,9.0,33,0.00,,,0.00,weatherlink.com 1.10,2013-03-01 23:08:00,
2013-03-01 16:23:00,47.8,20.0,30.30,North,5,5.0,13.0,33,0.00,,,0.00,weatherlink.com 1.10,2013-03-01 23:23:00,
2013-03-01 16:38:00,47.3,19.0,30.31,NNE,26,1.0,8.0,33,0.00,,,0.00,weatherlink.com 1.10,2013-03-01 23:38:00,
2013-03-01 17:09:00,45.7,19.0,30.32,ENE,57,0.0,6.0,35,0.00,,,0.00,weatherlink.com 1.10,2013-03-02 00:09:00,
2013-03-01 17:24:00,44.9,19.0,30.33,NNE,28,1.0,5.0,36,0.00,,,0.00,weatherlink.com 1.10,2013-03-02 00:24:00,
2013-03-01 17:39:00,43.8,19.0,30.34,ENE,61,0.0,5.0,37,0.00,,,0.00,weatherlink.com 1.10,2013-03-02 00:39:00,
2013-03-01 17:54:00,43.1,20.0,30.34,ENE,61,2.0,5.0,39,0.00,,,0.00,weatherlink.com 1.10,2013-03-02 00:54:00,
2013-03-01 18:09:00,42.5,20.0,30.35,East,82,0.0,3.0,40,0.00,,,0.00,weatherlink.com 1.10,2013-03-02 01:09:00,
2013-03-01 18:24:00,41.5,19.0,30.36,East,79,0.0,2.0,41,0.00,,,0.00,weatherlink.com 1.10,2013-03-02 01:24:00,
2013-03-01 18:39:00,40.8,19.0,30.36,East,79,0.0,0.0,41,0.00,,,0.00,weatherlink.com 1.10,2013-03-02 01:39:00,
2013-03-01 18:54:00,40.1,21.0,30.36,East,79,0.0,0.0,47,0.00,,,0.00,weatherlink.com 1.10,2013-03-02 01:54:00,
2013-03-01 19:09:00,39.0,20.0,30.36,East,79,0.0,1.0,47,0.00,,,0.00,weatherlink.com 1.10,2013-03-02 02:09:00,
2013-03-01 19:24:00,38.7,20.0,30.36,SE,140,0.0,2.0,48,0.00,,,0.00,weatherlink.com 1.10,2013-03-02 02:24:00,
2013-03-01 19:39:00,38.3,21.0,30.36,SE,140,0.0,2.0,50,0.00,,,0.00,weatherlink.com 1.10,2013-03-02 02:39:00,
2013-03-01 19:54:00,37.7,21.0,30.36,SSE,148,0.0,1.0,51,0.00,,,0.00,weatherlink.com 1.10,2013-03-02 02:54:00,
2013-03-01 20:09:00,37.6,21.0,30.36,SSE,161,0.0,2.0,52,0.00,,,0.00,weatherlink.com 1.10,2013-03-02 03:09:00,
2013-03-01 20:24:00,37.6,21.0,30.36,SW,219,0.0,2.0,51,0.00,,,0.00,weatherlink.com 1.10,2013-03-02 03:24:00,
2013-03-01 20:39:00,37.3,21.0,30.36,SW,219,0.0,1.0,51,0.00,,,0.00,weatherlink.com 1.10,2013-03-02 03:39:00,
2013-03-01 20:54:00,36.5,21.0,30.36,SW,219,0.0,1.0,54,0.00,,,0.00,weatherlink.com 1.10,2013-03-02 03:54:00,
2013-03-01 21:09:00,35.0,21.0,30.36,SW,219,0.0,2.0,58,0.00,,,0.00,weatherlink.com 1.10,2013-03-02 04:09:00,
2013-03-01 21:24:00,34.6,22.0,30.35,WSW,255,0.0,3.0,60,0.00,,,0.00,weatherlink.com 1.10,2013-03-02 04:24:00,
2013-03-01 21:39:00,33.8,22.0,30.35,WSW,255,0.0,1.0,62,0.00,,,0.00,weatherlink.com 1.10,2013-03-02 04:39:00,
2013-03-01 21:54:00,33.8,21.0,30.34,WSW,255,0.0,1.0,59,0.00,,,0.00,weatherlink.com 1.10,2013-03-02 04:54:00,
2013-03-01 22:09:00,34.2,21.0,30.34,SSE,168,0.0,4.0,60,0.00,,,0.00,weatherlink.com 1.10,2013-03-02 05:09:00,
2013-03-01 22:24:00,34.1,22.0,30.34,SSE,168,0.0,1.0,61,0.00,,,0.00,weatherlink.com 1.10,2013-03-02 05:24:00,
2013-03-01 22:39:00,33.6,22.0,30.34,SW,235,0.0,2.0,63,0.00,,,0.00,weatherlink.com 1.10,2013-03-02 05:39:00,
2013-03-01 22:54:00,33.2,22.0,30.34,SW,217,0.0,2.0,64,0.00,,,0.00,weatherlink.com 1.10,2013-03-02 05:54:00,
2013-03-01 23:09:00,32.7,22.0,30.34,SW,217,1.0,2.0,65,0.00,,,0.00,weatherlink.com 1.10,2013-03-02 06:09:00,
2013-03-01 23:24:00,32.5,22.0,30.34,SW,217,0.0,0.0,66,0.00,,,0.00,weatherlink.com 1.10,2013-03-02 06:24:00,
2013-03-01 23:39:00,32.1,22.0,30.34,SSW,209,0.0,2.0,67,0.00,,,0.00,weatherlink.com 1.10,2013-03-02 06:39:00,